sensor_id;sensor_type;location;lat;lon;timestamp;P1;durP1;ratioP1;P2;durP2;ratioP2
76712;SDS011;65640;43.154;25.658;2023-01-19T00:00:48;14.80;;;2.50;;
76712;SDS011;65640;43.154;25.658;2023-01-19T00:03:14;27.02;;;4.20;;
76712;SDS011;65640;43.154;25.658;2023-01-19T00:05:42;32.85;;;3.67;;
76712;SDS011;65640;43.154;25.658;2023-01-19T00:08:08;19.52;;;3.90;;
76712;SDS011;65640;43.154;25.658;2023-01-19T00:10:40;28.33;;;4.32;;
76712;SDS011;65640;43.154;25.658;2023-01-19T00:13:07;21.70;;;3.33;;
76712;SDS011;65640;43.154;25.658;2023-01-19T00:15:33;22.02;;;3.70;;
76712;SDS011;65640;43.154;25.658;2023-01-19T00:17:58;25.88;;;3.70;;
76712;SDS011;65640;43.154;25.658;2023-01-19T00:20:23;18.63;;;3.03;;
76712;SDS011;65640;43.154;25.658;2023-01-19T00:22:49;19.23;;;3.50;;
76712;SDS011;65640;43.154;25.658;2023-01-19T00:25:16;33.35;;;5.05;;
76712;SDS011;65640;43.154;25.658;2023-01-19T00:27:41;22.02;;;3.85;;
76712;SDS011;65640;43.154;25.658;2023-01-19T00:30:16;19.73;;;3.78;;
76712;SDS011;65640;43.154;25.658;2023-01-19T00:32:42;16.35;;;2.85;;
76712;SDS011;65640;43.154;25.658;2023-01-19T00:35:07;19.02;;;4.18;;
76712;SDS011;65640;43.154;25.658;2023-01-19T00:37:33;19.23;;;2.95;;
76712;SDS011;65640;43.154;25.658;2023-01-19T00:39:58;18.63;;;3.42;;
76712;SDS011;65640;43.154;25.658;2023-01-19T00:42:23;29.77;;;3.10;;
76712;SDS011;65640;43.154;25.658;2023-01-19T00:45:05;26.05;;;3.72;;
76712;SDS011;65640;43.154;25.658;2023-01-19T00:47:32;17.98;;;3.40;;
76712;SDS011;65640;43.154;25.658;2023-01-19T00:49:57;35.30;;;4.55;;
76712;SDS011;65640;43.154;25.658;2023-01-19T00:52:22;20.25;;;3.30;;
76712;SDS011;65640;43.154;25.658;2023-01-19T00:54:48;19.30;;;3.28;;
76712;SDS011;65640;43.154;25.658;2023-01-19T00:57:14;18.92;;;3.13;;
76712;SDS011;65640;43.154;25.658;2023-01-19T00:59:40;14.02;;;3.22;;
76712;SDS011;65640;43.154;25.658;2023-01-19T01:02:05;29.95;;;4.05;;
76712;SDS011;65640;43.154;25.658;2023-01-19T01:04:31;28.80;;;3.50;;
76712;SDS011;65640;43.154;25.658;2023-01-19T01:06:56;21.83;;;2.97;;
76712;SDS011;65640;43.154;25.658;2023-01-19T01:09:22;16.00;;;2.70;;
76712;SDS011;65640;43.154;25.658;2023-01-19T01:11:48;24.30;;;4.80;;
76712;SDS011;65640;43.154;25.658;2023-01-19T01:14:13;19.52;;;3.53;;
76712;SDS011;65640;43.154;25.658;2023-01-19T01:16:39;25.35;;;3.92;;
76712;SDS011;65640;43.154;25.658;2023-01-19T01:19:04;28.88;;;3.67;;
76712;SDS011;65640;43.154;25.658;2023-01-19T01:21:30;25.30;;;3.30;;
76712;SDS011;65640;43.154;25.658;2023-01-19T01:23:55;26.23;;;3.95;;
76712;SDS011;65640;43.154;25.658;2023-01-19T01:26:21;20.77;;;3.25;;
76712;SDS011;65640;43.154;25.658;2023-01-19T01:28:46;18.00;;;2.85;;
76712;SDS011;65640;43.154;25.658;2023-01-19T01:31:11;20.85;;;3.50;;
76712;SDS011;65640;43.154;25.658;2023-01-19T01:33:37;22.20;;;4.20;;
76712;SDS011;65640;43.154;25.658;2023-01-19T01:36:02;24.02;;;3.50;;
76712;SDS011;65640;43.154;25.658;2023-01-19T01:38:28;20.30;;;3.28;;
76712;SDS011;65640;43.154;25.658;2023-01-19T01:40:53;24.98;;;3.85;;
76712;SDS011;65640;43.154;25.658;2023-01-19T01:43:19;23.42;;;3.70;;
76712;SDS011;65640;43.154;25.658;2023-01-19T01:45:45;22.35;;;3.13;;
76712;SDS011;65640;43.154;25.658;2023-01-19T01:48:12;31.77;;;3.95;;
76712;SDS011;65640;43.154;25.658;2023-01-19T01:50:59;28.80;;;4.03;;
76712;SDS011;65640;43.154;25.658;2023-01-19T01:53:48;24.33;;;3.80;;
76712;SDS011;65640;43.154;25.658;2023-01-19T01:56:37;15.77;;;3.25;;
76712;SDS011;65640;43.154;25.658;2023-01-19T01:59:08;19.15;;;3.33;;
76712;SDS011;65640;43.154;25.658;2023-01-19T02:01:48;19.08;;;3.22;;
76712;SDS011;65640;43.154;25.658;2023-01-19T02:04:32;23.45;;;3.75;;
76712;SDS011;65640;43.154;25.658;2023-01-19T02:06:57;25.55;;;3.42;;
76712;SDS011;65640;43.154;25.658;2023-01-19T02:09:41;19.48;;;3.45;;
76712;SDS011;65640;43.154;25.658;2023-01-19T02:12:25;28.17;;;4.07;;
76712;SDS011;65640;43.154;25.658;2023-01-19T02:15:13;22.88;;;3.10;;
76712;SDS011;65640;43.154;25.658;2023-01-19T02:17:41;19.17;;;3.33;;
76712;SDS011;65640;43.154;25.658;2023-01-19T02:20:07;23.38;;;3.50;;
76712;SDS011;65640;43.154;25.658;2023-01-19T02:22:34;23.73;;;3.92;;
76712;SDS011;65640;43.154;25.658;2023-01-19T02:25:09;24.42;;;4.20;;
76712;SDS011;65640;43.154;25.658;2023-01-19T02:27:34;26.45;;;4.00;;
76712;SDS011;65640;43.154;25.658;2023-01-19T02:30:01;23.42;;;3.90;;
76712;SDS011;65640;43.154;25.658;2023-01-19T02:32:27;24.75;;;4.00;;
76712;SDS011;65640;43.154;25.658;2023-01-19T02:34:53;23.55;;;3.70;;
76712;SDS011;65640;43.154;25.658;2023-01-19T02:37:19;31.63;;;5.57;;
76712;SDS011;65640;43.154;25.658;2023-01-19T02:39:52;24.33;;;4.30;;
76712;SDS011;65640;43.154;25.658;2023-01-19T02:42:22;30.08;;;3.92;;
76712;SDS011;65640;43.154;25.658;2023-01-19T02:44:52;22.70;;;4.28;;
76712;SDS011;65640;43.154;25.658;2023-01-19T02:47:19;22.20;;;3.85;;
76712;SDS011;65640;43.154;25.658;2023-01-19T02:49:52;18.83;;;3.88;;
76712;SDS011;65640;43.154;25.658;2023-01-19T02:52:22;24.40;;;3.72;;
76712;SDS011;65640;43.154;25.658;2023-01-19T02:54:54;37.33;;;4.07;;
76712;SDS011;65640;43.154;25.658;2023-01-19T02:57:38;26.25;;;3.22;;
76712;SDS011;65640;43.154;25.658;2023-01-19T03:06:08;25.58;;;3.35;;
76712;SDS011;65640;43.154;25.658;2023-01-19T03:11:21;29.35;;;3.92;;
76712;SDS011;65640;43.154;25.658;2023-01-19T03:16:35;29.40;;;3.78;;
76712;SDS011;65640;43.154;25.658;2023-01-19T03:19:13;26.90;;;3.38;;
76712;SDS011;65640;43.154;25.658;2023-01-19T03:21:44;25.42;;;3.85;;
76712;SDS011;65640;43.154;25.658;2023-01-19T03:24:14;23.40;;;3.58;;
76712;SDS011;65640;43.154;25.658;2023-01-19T03:26:44;27.20;;;3.45;;
76712;SDS011;65640;43.154;25.658;2023-01-19T03:29:13;19.65;;;3.92;;
76712;SDS011;65640;43.154;25.658;2023-01-19T03:31:42;22.85;;;3.08;;
76712;SDS011;65640;43.154;25.658;2023-01-19T03:34:10;28.00;;;3.90;;
76712;SDS011;65640;43.154;25.658;2023-01-19T03:36:47;28.10;;;4.82;;
76712;SDS011;65640;43.154;25.658;2023-01-19T03:39:17;30.00;;;3.40;;
76712;SDS011;65640;43.154;25.658;2023-01-19T03:41:47;32.42;;;4.18;;
76712;SDS011;65640;43.154;25.658;2023-01-19T03:44:13;31.33;;;5.22;;
76712;SDS011;65640;43.154;25.658;2023-01-19T03:46:40;30.08;;;4.80;;
76712;SDS011;65640;43.154;25.658;2023-01-19T03:49:06;33.55;;;4.15;;
76712;SDS011;65640;43.154;25.658;2023-01-19T03:54:03;32.72;;;4.05;;
76712;SDS011;65640;43.154;25.658;2023-01-19T03:56:29;23.88;;;3.67;;
76712;SDS011;65640;43.154;25.658;2023-01-19T03:58:55;18.85;;;3.25;;
76712;SDS011;65640;43.154;25.658;2023-01-19T04:01:20;22.25;;;3.72;;
76712;SDS011;65640;43.154;25.658;2023-01-19T04:03:47;28.45;;;4.65;;
76712;SDS011;65640;43.154;25.658;2023-01-19T04:06:13;33.85;;;3.97;;
76712;SDS011;65640;43.154;25.658;2023-01-19T04:08:39;25.58;;;4.00;;
76712;SDS011;65640;43.154;25.658;2023-01-19T04:11:04;37.00;;;4.80;;
76712;SDS011;65640;43.154;25.658;2023-01-19T04:13:32;29.52;;;4.25;;
76712;SDS011;65640;43.154;25.658;2023-01-19T04:16:01;30.13;;;3.88;;
76712;SDS011;65640;43.154;25.658;2023-01-19T04:18:28;26.92;;;4.32;;
76712;SDS011;65640;43.154;25.658;2023-01-19T04:20:58;26.70;;;4.38;;
76712;SDS011;65640;43.154;25.658;2023-01-19T04:23:28;36.88;;;4.18;;
76712;SDS011;65640;43.154;25.658;2023-01-19T04:25:57;35.00;;;3.88;;
76712;SDS011;65640;43.154;25.658;2023-01-19T04:28:23;35.30;;;4.75;;
76712;SDS011;65640;43.154;25.658;2023-01-19T04:30:49;22.00;;;3.47;;
76712;SDS011;65640;43.154;25.658;2023-01-19T04:35:41;23.70;;;3.42;;
76712;SDS011;65640;43.154;25.658;2023-01-19T04:38:09;26.80;;;4.63;;
76712;SDS011;65640;43.154;25.658;2023-01-19T04:40:34;40.38;;;4.47;;
76712;SDS011;65640;43.154;25.658;2023-01-19T04:43:00;30.33;;;4.53;;
76712;SDS011;65640;43.154;25.658;2023-01-19T04:45:25;30.40;;;4.95;;
76712;SDS011;65640;43.154;25.658;2023-01-19T04:47:51;26.17;;;4.15;;
76712;SDS011;65640;43.154;25.658;2023-01-19T04:50:16;34.20;;;5.15;;
76712;SDS011;65640;43.154;25.658;2023-01-19T04:52:41;26.70;;;4.35;;
76712;SDS011;65640;43.154;25.658;2023-01-19T04:55:07;36.90;;;4.45;;
76712;SDS011;65640;43.154;25.658;2023-01-19T04:57:33;26.48;;;4.30;;
76712;SDS011;65640;43.154;25.658;2023-01-19T04:59:58;22.05;;;4.50;;
76712;SDS011;65640;43.154;25.658;2023-01-19T05:02:24;28.83;;;4.63;;
76712;SDS011;65640;43.154;25.658;2023-01-19T05:04:50;30.42;;;3.45;;
76712;SDS011;65640;43.154;25.658;2023-01-19T05:07:15;24.40;;;4.47;;
76712;SDS011;65640;43.154;25.658;2023-01-19T05:09:41;37.38;;;6.32;;
76712;SDS011;65640;43.154;25.658;2023-01-19T05:12:07;24.08;;;4.20;;
76712;SDS011;65640;43.154;25.658;2023-01-19T05:14:32;36.97;;;4.15;;
76712;SDS011;65640;43.154;25.658;2023-01-19T05:16:58;31.25;;;4.05;;
76712;SDS011;65640;43.154;25.658;2023-01-19T05:19:24;30.50;;;4.95;;
76712;SDS011;65640;43.154;25.658;2023-01-19T05:21:50;24.50;;;3.95;;
76712;SDS011;65640;43.154;25.658;2023-01-19T05:24:15;27.60;;;5.07;;
76712;SDS011;65640;43.154;25.658;2023-01-19T05:26:41;35.03;;;4.88;;
76712;SDS011;65640;43.154;25.658;2023-01-19T05:29:06;33.75;;;6.38;;
76712;SDS011;65640;43.154;25.658;2023-01-19T05:31:32;38.55;;;5.72;;
76712;SDS011;65640;43.154;25.658;2023-01-19T05:33:57;32.50;;;4.13;;
76712;SDS011;65640;43.154;25.658;2023-01-19T05:36:23;40.25;;;5.25;;
76712;SDS011;65640;43.154;25.658;2023-01-19T05:38:48;31.02;;;4.40;;
76712;SDS011;65640;43.154;25.658;2023-01-19T05:41:14;30.45;;;4.93;;
76712;SDS011;65640;43.154;25.658;2023-01-19T05:43:39;28.75;;;4.45;;
76712;SDS011;65640;43.154;25.658;2023-01-19T05:46:05;39.60;;;5.40;;
76712;SDS011;65640;43.154;25.658;2023-01-19T05:48:30;32.50;;;4.30;;
76712;SDS011;65640;43.154;25.658;2023-01-19T05:50:57;35.08;;;4.65;;
76712;SDS011;65640;43.154;25.658;2023-01-19T05:53:23;36.78;;;5.57;;
76712;SDS011;65640;43.154;25.658;2023-01-19T05:55:49;52.20;;;8.48;;
76712;SDS011;65640;43.154;25.658;2023-01-19T05:58:14;38.85;;;6.05;;
76712;SDS011;65640;43.154;25.658;2023-01-19T06:00:39;44.67;;;6.20;;
76712;SDS011;65640;43.154;25.658;2023-01-19T06:03:05;43.97;;;7.30;;
76712;SDS011;65640;43.154;25.658;2023-01-19T06:05:31;44.85;;;8.25;;
76712;SDS011;65640;43.154;25.658;2023-01-19T06:07:56;28.63;;;5.45;;
76712;SDS011;65640;43.154;25.658;2023-01-19T06:10:22;38.63;;;8.00;;
76712;SDS011;65640;43.154;25.658;2023-01-19T06:12:47;36.33;;;8.68;;
76712;SDS011;65640;43.154;25.658;2023-01-19T06:15:15;38.85;;;6.13;;
76712;SDS011;65640;43.154;25.658;2023-01-19T06:17:40;32.75;;;4.68;;
76712;SDS011;65640;43.154;25.658;2023-01-19T06:20:06;35.28;;;5.78;;
76712;SDS011;65640;43.154;25.658;2023-01-19T06:22:32;42.17;;;5.00;;
76712;SDS011;65640;43.154;25.658;2023-01-19T06:24:58;28.52;;;4.10;;
76712;SDS011;65640;43.154;25.658;2023-01-19T06:27:23;22.08;;;3.40;;
76712;SDS011;65640;43.154;25.658;2023-01-19T06:29:49;27.50;;;4.18;;
76712;SDS011;65640;43.154;25.658;2023-01-19T06:32:14;37.38;;;6.32;;
76712;SDS011;65640;43.154;25.658;2023-01-19T06:34:39;30.10;;;4.32;;
76712;SDS011;65640;43.154;25.658;2023-01-19T06:37:07;28.08;;;3.83;;
76712;SDS011;65640;43.154;25.658;2023-01-19T06:39:35;30.42;;;4.18;;
76712;SDS011;65640;43.154;25.658;2023-01-19T06:42:02;28.17;;;4.88;;
76712;SDS011;65640;43.154;25.658;2023-01-19T06:44:27;34.55;;;5.78;;
76712;SDS011;65640;43.154;25.658;2023-01-19T06:46:53;35.67;;;4.90;;
76712;SDS011;65640;43.154;25.658;2023-01-19T06:49:18;31.85;;;4.78;;
76712;SDS011;65640;43.154;25.658;2023-01-19T06:51:44;36.45;;;5.07;;
76712;SDS011;65640;43.154;25.658;2023-01-19T06:54:09;26.58;;;4.50;;
76712;SDS011;65640;43.154;25.658;2023-01-19T06:56:35;26.77;;;4.15;;
76712;SDS011;65640;43.154;25.658;2023-01-19T06:59:00;27.73;;;4.65;;
76712;SDS011;65640;43.154;25.658;2023-01-19T07:01:26;31.17;;;5.28;;
76712;SDS011;65640;43.154;25.658;2023-01-19T07:03:51;35.95;;;4.78;;
76712;SDS011;65640;43.154;25.658;2023-01-19T07:06:17;20.35;;;3.78;;
76712;SDS011;65640;43.154;25.658;2023-01-19T07:08:42;36.40;;;4.78;;
76712;SDS011;65640;43.154;25.658;2023-01-19T07:11:08;31.02;;;5.03;;
76712;SDS011;65640;43.154;25.658;2023-01-19T07:13:35;28.05;;;5.18;;
76712;SDS011;65640;43.154;25.658;2023-01-19T07:16:03;32.42;;;4.10;;
76712;SDS011;65640;43.154;25.658;2023-01-19T07:18:36;37.92;;;5.05;;
76712;SDS011;65640;43.154;25.658;2023-01-19T07:21:03;25.60;;;3.70;;
76712;SDS011;65640;43.154;25.658;2023-01-19T07:23:29;30.08;;;4.00;;
76712;SDS011;65640;43.154;25.658;2023-01-19T07:25:57;32.53;;;4.47;;
76712;SDS011;65640;43.154;25.658;2023-01-19T07:28:25;30.75;;;5.15;;
76712;SDS011;65640;43.154;25.658;2023-01-19T07:30:52;21.90;;;4.18;;
76712;SDS011;65640;43.154;25.658;2023-01-19T07:33:19;33.90;;;5.57;;
76712;SDS011;65640;43.154;25.658;2023-01-19T07:35:50;35.72;;;5.82;;
76712;SDS011;65640;43.154;25.658;2023-01-19T07:38:16;33.70;;;4.57;;
76712;SDS011;65640;43.154;25.658;2023-01-19T07:43:08;33.63;;;4.55;;
76712;SDS011;65640;43.154;25.658;2023-01-19T07:45:34;41.60;;;5.03;;
76712;SDS011;65640;43.154;25.658;2023-01-19T07:48:00;35.90;;;5.32;;
76712;SDS011;65640;43.154;25.658;2023-01-19T07:50:26;36.28;;;4.80;;
76712;SDS011;65640;43.154;25.658;2023-01-19T07:52:53;41.58;;;5.72;;
76712;SDS011;65640;43.154;25.658;2023-01-19T07:57:51;46.80;;;5.90;;
76712;SDS011;65640;43.154;25.658;2023-01-19T08:00:17;34.55;;;5.25;;
76712;SDS011;65640;43.154;25.658;2023-01-19T08:02:48;33.10;;;4.55;;
76712;SDS011;65640;43.154;25.658;2023-01-19T08:05:18;45.53;;;5.40;;
76712;SDS011;65640;43.154;25.658;2023-01-19T08:07:44;31.42;;;5.15;;
76712;SDS011;65640;43.154;25.658;2023-01-19T08:10:13;34.20;;;4.38;;
76712;SDS011;65640;43.154;25.658;2023-01-19T08:12:39;31.67;;;4.45;;
76712;SDS011;65640;43.154;25.658;2023-01-19T08:15:06;35.85;;;4.18;;
76712;SDS011;65640;43.154;25.658;2023-01-19T08:17:33;35.85;;;5.53;;
76712;SDS011;65640;43.154;25.658;2023-01-19T08:19:58;32.67;;;4.70;;
76712;SDS011;65640;43.154;25.658;2023-01-19T08:22:24;37.85;;;4.97;;
76712;SDS011;65640;43.154;25.658;2023-01-19T08:24:50;28.40;;;4.00;;
76712;SDS011;65640;43.154;25.658;2023-01-19T08:27:15;28.35;;;3.28;;
76712;SDS011;65640;43.154;25.658;2023-01-19T08:29:41;42.22;;;5.68;;
76712;SDS011;65640;43.154;25.658;2023-01-19T08:32:07;31.40;;;5.10;;
76712;SDS011;65640;43.154;25.658;2023-01-19T08:34:32;34.22;;;5.28;;
76712;SDS011;65640;43.154;25.658;2023-01-19T08:36:57;34.03;;;4.93;;
76712;SDS011;65640;43.154;25.658;2023-01-19T08:39:23;39.22;;;4.75;;
76712;SDS011;65640;43.154;25.658;2023-01-19T08:41:49;47.97;;;4.72;;
76712;SDS011;65640;43.154;25.658;2023-01-19T08:44:15;34.33;;;4.40;;
76712;SDS011;65640;43.154;25.658;2023-01-19T08:46:40;33.85;;;4.75;;
76712;SDS011;65640;43.154;25.658;2023-01-19T08:49:06;32.78;;;5.93;;
76712;SDS011;65640;43.154;25.658;2023-01-19T08:51:32;51.45;;;5.47;;
76712;SDS011;65640;43.154;25.658;2023-01-19T08:53:58;45.38;;;6.22;;
76712;SDS011;65640;43.154;25.658;2023-01-19T08:56:23;58.63;;;7.05;;
76712;SDS011;65640;43.154;25.658;2023-01-19T08:58:48;28.08;;;4.13;;
76712;SDS011;65640;43.154;25.658;2023-01-19T09:01:14;36.95;;;4.53;;
76712;SDS011;65640;43.154;25.658;2023-01-19T09:06:07;33.42;;;4.25;;
76712;SDS011;65640;43.154;25.658;2023-01-19T09:08:33;30.65;;;4.68;;
76712;SDS011;65640;43.154;25.658;2023-01-19T09:10:59;42.83;;;4.70;;
76712;SDS011;65640;43.154;25.658;2023-01-19T09:13:24;44.67;;;5.07;;
76712;SDS011;65640;43.154;25.658;2023-01-19T09:15:50;31.02;;;5.03;;
76712;SDS011;65640;43.154;25.658;2023-01-19T09:18:17;37.03;;;4.38;;
76712;SDS011;65640;43.154;25.658;2023-01-19T09:20:45;25.73;;;4.70;;
76712;SDS011;65640;43.154;25.658;2023-01-19T09:23:13;31.83;;;5.13;;
76712;SDS011;65640;43.154;25.658;2023-01-19T09:25:41;37.50;;;5.60;;
76712;SDS011;65640;43.154;25.658;2023-01-19T09:28:09;40.10;;;5.00;;
76712;SDS011;65640;43.154;25.658;2023-01-19T09:30:36;33.63;;;3.97;;
76712;SDS011;65640;43.154;25.658;2023-01-19T09:33:03;29.60;;;4.68;;
76712;SDS011;65640;43.154;25.658;2023-01-19T09:35:31;29.35;;;4.75;;
76712;SDS011;65640;43.154;25.658;2023-01-19T09:37:59;36.05;;;4.88;;
76712;SDS011;65640;43.154;25.658;2023-01-19T09:40:25;30.02;;;3.72;;
76712;SDS011;65640;43.154;25.658;2023-01-19T09:47:51;26.95;;;3.70;;
76712;SDS011;65640;43.154;25.658;2023-01-19T09:50:30;33.22;;;4.35;;
76712;SDS011;65640;43.154;25.658;2023-01-19T09:53:04;31.40;;;4.25;;
76712;SDS011;65640;43.154;25.658;2023-01-19T09:55:38;25.65;;;3.90;;
76712;SDS011;65640;43.154;25.658;2023-01-19T09:58:15;24.95;;;3.40;;
76712;SDS011;65640;43.154;25.658;2023-01-19T10:00:55;35.78;;;4.72;;
76712;SDS011;65640;43.154;25.658;2023-01-19T10:03:26;49.90;;;4.85;;
76712;SDS011;65640;43.154;25.658;2023-01-19T10:11:03;32.15;;;4.30;;
76712;SDS011;65640;43.154;25.658;2023-01-19T10:13:42;37.28;;;3.85;;
76712;SDS011;65640;43.154;25.658;2023-01-19T10:18:56;27.08;;;3.95;;
76712;SDS011;65640;43.154;25.658;2023-01-19T10:21:27;19.17;;;3.45;;
76712;SDS011;65640;43.154;25.658;2023-01-19T10:23:58;22.45;;;4.57;;
76712;SDS011;65640;43.154;25.658;2023-01-19T10:26:30;22.48;;;3.53;;
76712;SDS011;65640;43.154;25.658;2023-01-19T10:29:23;37.45;;;4.40;;
76712;SDS011;65640;43.154;25.658;2023-01-19T10:32:07;31.52;;;4.07;;
76712;SDS011;65640;43.154;25.658;2023-01-19T10:34:54;23.35;;;3.35;;
76712;SDS011;65640;43.154;25.658;2023-01-19T10:37:32;24.70;;;3.03;;
76712;SDS011;65640;43.154;25.658;2023-01-19T10:42:36;25.98;;;4.60;;
76712;SDS011;65640;43.154;25.658;2023-01-19T10:45:06;32.47;;;4.03;;
76712;SDS011;65640;43.154;25.658;2023-01-19T10:47:39;35.25;;;3.70;;
76712;SDS011;65640;43.154;25.658;2023-01-19T10:50:26;25.23;;;3.08;;
76712;SDS011;65640;43.154;25.658;2023-01-19T10:52:56;21.65;;;3.58;;
76712;SDS011;65640;43.154;25.658;2023-01-19T10:55:25;30.60;;;4.25;;
76712;SDS011;65640;43.154;25.658;2023-01-19T10:57:53;24.88;;;3.40;;
76712;SDS011;65640;43.154;25.658;2023-01-19T11:05:50;31.10;;;4.15;;
76712;SDS011;65640;43.154;25.658;2023-01-19T11:08:50;24.25;;;3.10;;
76712;SDS011;65640;43.154;25.658;2023-01-19T11:11:08;19.60;;;3.13;;
76712;SDS011;65640;43.154;25.658;2023-01-19T11:13:36;26.75;;;3.38;;
76712;SDS011;65640;43.154;25.658;2023-01-19T11:16:04;19.02;;;3.58;;
76712;SDS011;65640;43.154;25.658;2023-01-19T11:18:50;20.10;;;3.17;;
76712;SDS011;65640;43.154;25.658;2023-01-19T11:21:17;15.65;;;3.13;;
76712;SDS011;65640;43.154;25.658;2023-01-19T11:23:50;27.83;;;4.00;;
76712;SDS011;65640;43.154;25.658;2023-01-19T11:26:24;25.20;;;3.35;;
76712;SDS011;65640;43.154;25.658;2023-01-19T11:28:53;23.45;;;2.58;;
76712;SDS011;65640;43.154;25.658;2023-01-19T11:33:52;20.95;;;3.40;;
76712;SDS011;65640;43.154;25.658;2023-01-19T11:36:26;24.38;;;2.97;;
76712;SDS011;65640;43.154;25.658;2023-01-19T11:39:17;25.00;;;3.85;;
76712;SDS011;65640;43.154;25.658;2023-01-19T11:41:51;16.00;;;2.80;;
76712;SDS011;65640;43.154;25.658;2023-01-19T11:44:21;22.55;;;3.28;;
76712;SDS011;65640;43.154;25.658;2023-01-19T11:46:51;17.75;;;2.83;;
76712;SDS011;65640;43.154;25.658;2023-01-19T11:49:25;26.20;;;3.33;;
76712;SDS011;65640;43.154;25.658;2023-01-19T11:55:11;25.02;;;3.15;;
76712;SDS011;65640;43.154;25.658;2023-01-19T11:57:45;19.58;;;3.35;;
76712;SDS011;65640;43.154;25.658;2023-01-19T12:00:24;18.05;;;2.95;;
76712;SDS011;65640;43.154;25.658;2023-01-19T12:03:05;24.75;;;3.28;;
76712;SDS011;65640;43.154;25.658;2023-01-19T12:05:45;18.65;;;2.83;;
76712;SDS011;65640;43.154;25.658;2023-01-19T12:08:17;19.58;;;3.40;;
76712;SDS011;65640;43.154;25.658;2023-01-19T12:10:47;16.98;;;2.85;;
76712;SDS011;65640;43.154;25.658;2023-01-19T12:13:21;25.15;;;3.58;;
76712;SDS011;65640;43.154;25.658;2023-01-19T12:15:49;17.92;;;3.17;;
76712;SDS011;65640;43.154;25.658;2023-01-19T12:18:24;20.30;;;2.97;;
76712;SDS011;65640;43.154;25.658;2023-01-19T12:21:12;19.45;;;2.90;;
76712;SDS011;65640;43.154;25.658;2023-01-19T12:26:42;19.70;;;2.83;;
76712;SDS011;65640;43.154;25.658;2023-01-19T12:29:16;14.48;;;2.92;;
76712;SDS011;65640;43.154;25.658;2023-01-19T12:31:44;12.88;;;2.72;;
76712;SDS011;65640;43.154;25.658;2023-01-19T12:36:51;16.50;;;2.75;;
76712;SDS011;65640;43.154;25.658;2023-01-19T12:39:25;19.80;;;3.25;;
76712;SDS011;65640;43.154;25.658;2023-01-19T12:44:38;20.08;;;3.08;;
76712;SDS011;65640;43.154;25.658;2023-01-19T12:47:26;23.48;;;2.85;;
76712;SDS011;65640;43.154;25.658;2023-01-19T12:49:54;20.25;;;3.00;;
76712;SDS011;65640;43.154;25.658;2023-01-19T12:52:27;18.00;;;2.85;;
76712;SDS011;65640;43.154;25.658;2023-01-19T13:00:29;14.02;;;2.83;;
76712;SDS011;65640;43.154;25.658;2023-01-19T13:02:59;12.48;;;2.45;;
76712;SDS011;65640;43.154;25.658;2023-01-19T13:13:34;14.13;;;2.40;;
76712;SDS011;65640;43.154;25.658;2023-01-19T13:21:50;17.30;;;3.28;;
76712;SDS011;65640;43.154;25.658;2023-01-19T13:24:09;12.88;;;2.60;;
76712;SDS011;65640;43.154;25.658;2023-01-19T13:26:36;14.07;;;2.47;;
76712;SDS011;65640;43.154;25.658;2023-01-19T13:29:05;18.83;;;2.15;;
76712;SDS011;65640;43.154;25.658;2023-01-19T13:31:35;13.68;;;3.03;;
76712;SDS011;65640;43.154;25.658;2023-01-19T13:34:03;14.25;;;2.40;;
76712;SDS011;65640;43.154;25.658;2023-01-19T13:36:35;11.93;;;1.83;;
76712;SDS011;65640;43.154;25.658;2023-01-19T13:39:11;10.05;;;2.28;;
76712;SDS011;65640;43.154;25.658;2023-01-19T13:41:40;10.52;;;2.08;;
76712;SDS011;65640;43.154;25.658;2023-01-19T13:44:20;11.32;;;2.58;;
76712;SDS011;65640;43.154;25.658;2023-01-19T13:46:50;12.27;;;2.60;;
76712;SDS011;65640;43.154;25.658;2023-01-19T13:49:27;16.75;;;2.80;;
76712;SDS011;65640;43.154;25.658;2023-01-19T13:54:49;8.63;;;2.38;;
76712;SDS011;65640;43.154;25.658;2023-01-19T13:57:58;12.93;;;3.03;;
76712;SDS011;65640;43.154;25.658;2023-01-19T14:00:12;9.32;;;1.80;;
76712;SDS011;65640;43.154;25.658;2023-01-19T14:02:52;11.50;;;2.45;;
76712;SDS011;65640;43.154;25.658;2023-01-19T14:05:37;11.77;;;2.10;;
76712;SDS011;65640;43.154;25.658;2023-01-19T14:10:37;7.85;;;1.98;;
76712;SDS011;65640;43.154;25.658;2023-01-19T14:13:03;13.85;;;1.95;;
76712;SDS011;65640;43.154;25.658;2023-01-19T14:15:41;14.27;;;2.20;;
76712;SDS011;65640;43.154;25.658;2023-01-19T14:20:34;7.22;;;2.00;;
76712;SDS011;65640;43.154;25.658;2023-01-19T14:23:03;9.88;;;1.67;;
76712;SDS011;65640;43.154;25.658;2023-01-19T14:25:31;8.73;;;1.63;;
76712;SDS011;65640;43.154;25.658;2023-01-19T14:31:23;8.55;;;1.88;;
76712;SDS011;65640;43.154;25.658;2023-01-19T14:33:55;8.45;;;1.15;;
76712;SDS011;65640;43.154;25.658;2023-01-19T14:38:50;10.52;;;1.60;;
76712;SDS011;65640;43.154;25.658;2023-01-19T14:41:21;11.50;;;2.03;;
76712;SDS011;65640;43.154;25.658;2023-01-19T14:44:14;32.83;;;2.25;;
76712;SDS011;65640;43.154;25.658;2023-01-19T14:46:53;7.70;;;2.30;;
76712;SDS011;65640;43.154;25.658;2023-01-19T14:49:33;10.93;;;1.30;;
76712;SDS011;65640;43.154;25.658;2023-01-19T14:52:14;6.20;;;1.45;;
76712;SDS011;65640;43.154;25.658;2023-01-19T14:54:44;12.48;;;1.75;;
76712;SDS011;65640;43.154;25.658;2023-01-19T14:57:11;7.55;;;1.63;;
76712;SDS011;65640;43.154;25.658;2023-01-19T14:59:37;12.90;;;2.00;;
76712;SDS011;65640;43.154;25.658;2023-01-19T15:02:03;11.35;;;1.38;;
76712;SDS011;65640;43.154;25.658;2023-01-19T15:04:28;6.72;;;1.63;;
76712;SDS011;65640;43.154;25.658;2023-01-19T15:06:54;8.52;;;1.38;;
76712;SDS011;65640;43.154;25.658;2023-01-19T15:09:20;7.18;;;1.90;;
76712;SDS011;65640;43.154;25.658;2023-01-19T15:11:46;10.27;;;1.92;;
76712;SDS011;65640;43.154;25.658;2023-01-19T15:14:14;8.48;;;1.63;;
76712;SDS011;65640;43.154;25.658;2023-01-19T15:16:41;9.55;;;1.92;;
76712;SDS011;65640;43.154;25.658;2023-01-19T15:19:10;8.30;;;2.15;;
76712;SDS011;65640;43.154;25.658;2023-01-19T15:21:36;14.45;;;3.80;;
76712;SDS011;65640;43.154;25.658;2023-01-19T15:24:06;6.70;;;1.83;;
76712;SDS011;65640;43.154;25.658;2023-01-19T15:28:57;8.98;;;1.45;;
76712;SDS011;65640;43.154;25.658;2023-01-19T15:31:23;13.38;;;2.05;;
76712;SDS011;65640;43.154;25.658;2023-01-19T15:33:51;8.52;;;2.78;;
76712;SDS011;65640;43.154;25.658;2023-01-19T15:36:18;4.43;;;1.20;;
76712;SDS011;65640;43.154;25.658;2023-01-19T15:38:45;9.45;;;1.80;;
76712;SDS011;65640;43.154;25.658;2023-01-19T15:46:08;9.45;;;1.50;;
76712;SDS011;65640;43.154;25.658;2023-01-19T15:48:37;6.07;;;1.27;;
76712;SDS011;65640;43.154;25.658;2023-01-19T15:51:03;8.45;;;2.83;;
76712;SDS011;65640;43.154;25.658;2023-01-19T15:53:29;5.97;;;1.90;;
76712;SDS011;65640;43.154;25.658;2023-01-19T15:55:55;10.45;;;1.73;;
76712;SDS011;65640;43.154;25.658;2023-01-19T15:58:21;5.93;;;2.20;;
76712;SDS011;65640;43.154;25.658;2023-01-19T16:00:54;6.68;;;1.75;;
76712;SDS011;65640;43.154;25.658;2023-01-19T16:03:20;6.40;;;1.63;;
76712;SDS011;65640;43.154;25.658;2023-01-19T16:05:46;5.97;;;1.58;;
76712;SDS011;65640;43.154;25.658;2023-01-19T16:08:12;10.48;;;1.75;;
76712;SDS011;65640;43.154;25.658;2023-01-19T16:10:38;10.35;;;1.73;;
76712;SDS011;65640;43.154;25.658;2023-01-19T16:13:04;5.28;;;2.00;;